Terminal Aerodrome Forecast
Issued by NWS

Home | Current Version | Previous Version | Text Only | Print | Product List | Glossary On
Versions: 1 2 3 4 5 6 7 8 9 10 11 12 13 14 15 16 17
000
FTUS42 KGSP 282320
TAFGMU
TAF
KGMU 282320Z 2900/2924 16003KT P6SM FEW250
     FM290200 00000KT P6SM FEW250
     FM291400 21006KT P6SM SCT180
     FM291800 21010KT P6SM BKN150=

USA.gov is the U.S. government's official web portal to all federal, state and local government web resources and services.